Lake Village, IN (46349)

3:57 PM CDT on June 26, 2017 (GMT -0500)
Lincoln Township | | Change Station

Elev 692 ft 41.13 °N, 87.35 °W | Updated 10 seconds ago

Rain
Rain
70.0 °F
Feels Like 70.0 °F
N
1.8
Wind Variable Wind from West
Gusts 2.5 mph

Today
High -- | Low -- °F
--% Chance of Precip.
Yesterday
High -- | Low -- °F
Precip. -- in
Pressure 30.08 in
Visibility 10.0 miles
Clouds Scattered Clouds 6500 ft
Scattered Clouds 10000 ft
Mostly Cloudy 12000 ft
Dew Point 50 °F
Humidity 49%
Rainfall 0.00 in
Snow Depth Not available.
5:18 AM 8:26 PM
Waxing Crescent, 11% visible
METAR KIKK 262035Z AUTO 29005KT 10SM -VCTSRA SCT065 SCT100 BKN120 17/12 A3008 RMK AO2 LTG DSNT SE THRU NW T01720115
Pressure 30.08 in
Visibility 10.0 miles
Clouds Scattered Clouds 6500 ft
Scattered Clouds 10000 ft
Mostly Cloudy 12000 ft
Dew Point 50 °F
Humidity 49%
Rainfall 0.00 in
Snow Depth Not available.
5:18 AM 8:26 PM
Waxing Crescent, 11% visible
METAR KIKK 262035Z AUTO 29005KT 10SM -VCTSRA SCT065 SCT100 BKN120 17/12 A3008 RMK AO2 LTG DSNT SE THRU NW T01720115

Get Severe Weather Alerts

Thanks for signing up!

Be on the lookout for a verification email in your inbox.

You'll start receiving the daily forecast at 6 AM.

×

10-Day Weather Forecast

Almanac

Astronomy

Jun. 26, 2017 Rise Set
Actual Time
Civil Twilight
Nautical Twilight
Astronomical Twilight
Moon
Length of Visible Light
Length of Day
Tomorrow will be .
, % of the Moon is Illuminated

Today's Extremes

State Highs State Lows

Community

WunderPhotos

Category 6

Welcome to Category 6. This is the collective home for Weather Underground's featured writeups by Dr. Jeff Masters (right), Bob Henson (left), Chris Burt, and other regular contributors.

Nearby

Air Quality

  Air Quality AQ Index Pollutant
Not available.

Snow Depth

Station Depth Elevation

Earthquake Activity

City Distance Mag. Time & Date
Minimum magnitude displayed is 2.5.

Coastal Water Temperatures

Place Temperature

Stations

Nearby Weather Stations

Station Location Temp. Windchill Dew Point Humidity Wind Precip. Elev Updated Type
                   

Watches & Warnings

There are currently no watches in effect.